sensor_id;sensor_type;location;lat;lon;timestamp;P1;durP1;ratioP1;P2;durP2;ratioP2
1382;SDS011;685;47.196;11.880;2023-04-25T00:00:28;2.27;;;1.30;;
1382;SDS011;685;47.196;11.880;2023-04-25T00:02:56;1.80;;;1.47;;
1382;SDS011;685;47.196;11.880;2023-04-25T00:05:25;1.70;;;1.30;;
1382;SDS011;685;47.196;11.880;2023-04-25T00:07:52;2.47;;;1.30;;
1382;SDS011;685;47.196;11.880;2023-04-25T00:10:19;2.37;;;1.43;;
1382;SDS011;685;47.196;11.880;2023-04-25T00:12:46;2.50;;;1.30;;
1382;SDS011;685;47.196;11.880;2023-04-25T00:15:13;1.90;;;1.60;;
1382;SDS011;685;47.196;11.880;2023-04-25T00:17:41;2.33;;;1.93;;
1382;SDS011;685;47.196;11.880;2023-04-25T00:20:10;2.77;;;1.77;;
1382;SDS011;685;47.196;11.880;2023-04-25T00:22:37;2.13;;;1.70;;
1382;SDS011;685;47.196;11.880;2023-04-25T00:25:04;3.30;;;2.90;;
1382;SDS011;685;47.196;11.880;2023-04-25T00:27:32;1.80;;;1.40;;
1382;SDS011;685;47.196;11.880;2023-04-25T00:29:59;3.77;;;2.13;;
1382;SDS011;685;47.196;11.880;2023-04-25T00:32:26;1.60;;;1.50;;
1382;SDS011;685;47.196;11.880;2023-04-25T00:34:53;2.67;;;1.40;;
1382;SDS011;685;47.196;11.880;2023-04-25T00:37:22;3.43;;;2.33;;
1382;SDS011;685;47.196;11.880;2023-04-25T00:39:49;2.50;;;1.97;;
1382;SDS011;685;47.196;11.880;2023-04-25T00:42:16;2.43;;;1.30;;
1382;SDS011;685;47.196;11.880;2023-04-25T00:44:43;1.60;;;1.37;;
1382;SDS011;685;47.196;11.880;2023-04-25T00:47:11;2.57;;;1.67;;
1382;SDS011;685;47.196;11.880;2023-04-25T00:49:39;4.03;;;1.50;;
1382;SDS011;685;47.196;11.880;2023-04-25T00:52:05;1.57;;;1.27;;
1382;SDS011;685;47.196;11.880;2023-04-25T00:54:34;2.53;;;1.70;;
1382;SDS011;685;47.196;11.880;2023-04-25T00:57:01;1.80;;;1.27;;
1382;SDS011;685;47.196;11.880;2023-04-25T00:59:29;1.67;;;1.20;;
1382;SDS011;685;47.196;11.880;2023-04-25T01:01:56;1.70;;;1.40;;
1382;SDS011;685;47.196;11.880;2023-04-25T01:04:24;1.50;;;1.27;;
1382;SDS011;685;47.196;11.880;2023-04-25T01:06:53;3.00;;;1.50;;
1382;SDS011;685;47.196;11.880;2023-04-25T01:09:20;2.03;;;1.37;;
1382;SDS011;685;47.196;11.880;2023-04-25T01:11:49;1.80;;;1.70;;
1382;SDS011;685;47.196;11.880;2023-04-25T01:14:16;4.90;;;1.90;;
1382;SDS011;685;47.196;11.880;2023-04-25T01:16:43;2.23;;;1.97;;
1382;SDS011;685;47.196;11.880;2023-04-25T01:19:10;2.17;;;1.53;;
1382;SDS011;685;47.196;11.880;2023-04-25T01:21:39;2.43;;;1.60;;
1382;SDS011;685;47.196;11.880;2023-04-25T01:24:06;1.67;;;1.57;;
1382;SDS011;685;47.196;11.880;2023-04-25T01:26:34;4.40;;;1.73;;
1382;SDS011;685;47.196;11.880;2023-04-25T01:29:02;1.90;;;1.50;;
1382;SDS011;685;47.196;11.880;2023-04-25T01:31:30;1.50;;;1.10;;
1382;SDS011;685;47.196;11.880;2023-04-25T01:33:58;1.73;;;1.63;;
1382;SDS011;685;47.196;11.880;2023-04-25T01:36:26;2.50;;;1.63;;
1382;SDS011;685;47.196;11.880;2023-04-25T01:38:55;1.90;;;1.67;;
1382;SDS011;685;47.196;11.880;2023-04-25T01:41:22;1.40;;;1.20;;
1382;SDS011;685;47.196;11.880;2023-04-25T01:43:50;1.73;;;1.60;;
1382;SDS011;685;47.196;11.880;2023-04-25T01:46:17;2.00;;;1.43;;
1382;SDS011;685;47.196;11.880;2023-04-25T01:48:43;4.27;;;1.70;;
1382;SDS011;685;47.196;11.880;2023-04-25T01:51:10;2.97;;;1.70;;
1382;SDS011;685;47.196;11.880;2023-04-25T01:53:37;1.73;;;1.50;;
1382;SDS011;685;47.196;11.880;2023-04-25T01:56:06;2.03;;;1.67;;
1382;SDS011;685;47.196;11.880;2023-04-25T01:58:33;2.40;;;2.10;;
1382;SDS011;685;47.196;11.880;2023-04-25T02:01:00;2.40;;;2.20;;
1382;SDS011;685;47.196;11.880;2023-04-25T02:03:27;1.60;;;1.50;;
1382;SDS011;685;47.196;11.880;2023-04-25T02:05:55;1.87;;;1.73;;
1382;SDS011;685;47.196;11.880;2023-04-25T02:08:22;2.10;;;1.80;;
1382;SDS011;685;47.196;11.880;2023-04-25T02:10:51;1.93;;;1.70;;
1382;SDS011;685;47.196;11.880;2023-04-25T02:13:19;2.20;;;1.97;;
1382;SDS011;685;47.196;11.880;2023-04-25T02:15:46;2.27;;;1.90;;
1382;SDS011;685;47.196;11.880;2023-04-25T02:18:13;2.47;;;1.80;;
1382;SDS011;685;47.196;11.880;2023-04-25T02:20:41;2.53;;;1.97;;
1382;SDS011;685;47.196;11.880;2023-04-25T02:23:08;1.60;;;1.50;;
1382;SDS011;685;47.196;11.880;2023-04-25T02:25:34;2.57;;;1.97;;
1382;SDS011;685;47.196;11.880;2023-04-25T02:28:01;1.93;;;1.73;;
1382;SDS011;685;47.196;11.880;2023-04-25T02:30:30;2.10;;;1.50;;
1382;SDS011;685;47.196;11.880;2023-04-25T02:32:57;1.63;;;1.47;;
1382;SDS011;685;47.196;11.880;2023-04-25T02:35:24;2.60;;;1.50;;
1382;SDS011;685;47.196;11.880;2023-04-25T02:37:51;1.80;;;1.53;;
1382;SDS011;685;47.196;11.880;2023-04-25T02:40:18;1.53;;;1.27;;
1382;SDS011;685;47.196;11.880;2023-04-25T02:42:45;2.87;;;1.40;;
1382;SDS011;685;47.196;11.880;2023-04-25T02:45:12;2.33;;;1.83;;
1382;SDS011;685;47.196;11.880;2023-04-25T02:47:40;2.37;;;2.17;;
1382;SDS011;685;47.196;11.880;2023-04-25T02:50:07;2.00;;;1.80;;
1382;SDS011;685;47.196;11.880;2023-04-25T02:52:34;2.43;;;1.80;;
1382;SDS011;685;47.196;11.880;2023-04-25T02:55:01;3.80;;;2.50;;
1382;SDS011;685;47.196;11.880;2023-04-25T02:57:28;2.60;;;2.17;;
1382;SDS011;685;47.196;11.880;2023-04-25T02:59:55;2.70;;;1.93;;
1382;SDS011;685;47.196;11.880;2023-04-25T03:02:22;2.13;;;1.93;;
1382;SDS011;685;47.196;11.880;2023-04-25T03:04:50;2.30;;;2.10;;
1382;SDS011;685;47.196;11.880;2023-04-25T03:07:17;2.67;;;2.10;;
1382;SDS011;685;47.196;11.880;2023-04-25T03:09:44;2.30;;;2.00;;
1382;SDS011;685;47.196;11.880;2023-04-25T03:12:11;3.43;;;1.90;;
1382;SDS011;685;47.196;11.880;2023-04-25T03:14:38;2.33;;;1.80;;
1382;SDS011;685;47.196;11.880;2023-04-25T03:17:05;1.93;;;1.73;;
1382;SDS011;685;47.196;11.880;2023-04-25T03:19:32;3.20;;;1.73;;
1382;SDS011;685;47.196;11.880;2023-04-25T03:22:00;3.10;;;2.20;;
1382;SDS011;685;47.196;11.880;2023-04-25T03:24:27;1.83;;;1.73;;
1382;SDS011;685;47.196;11.880;2023-04-25T03:26:54;1.97;;;1.77;;
1382;SDS011;685;47.196;11.880;2023-04-25T03:29:21;2.33;;;1.80;;
1382;SDS011;685;47.196;11.880;2023-04-25T03:31:50;2.83;;;2.50;;
1382;SDS011;685;47.196;11.880;2023-04-25T03:34:17;2.27;;;2.07;;
1382;SDS011;685;47.196;11.880;2023-04-25T03:36:46;2.17;;;1.90;;
1382;SDS011;685;47.196;11.880;2023-04-25T03:39:15;2.63;;;1.73;;
1382;SDS011;685;47.196;11.880;2023-04-25T03:41:41;5.67;;;2.17;;
1382;SDS011;685;47.196;11.880;2023-04-25T03:44:08;2.60;;;2.40;;
1382;SDS011;685;47.196;11.880;2023-04-25T03:46:35;2.10;;;1.87;;
1382;SDS011;685;47.196;11.880;2023-04-25T03:49:02;2.30;;;1.77;;
1382;SDS011;685;47.196;11.880;2023-04-25T03:51:29;5.43;;;4.20;;
1382;SDS011;685;47.196;11.880;2023-04-25T03:53:56;3.40;;;3.10;;
1382;SDS011;685;47.196;11.880;2023-04-25T03:56:25;3.80;;;3.40;;
1382;SDS011;685;47.196;11.880;2023-04-25T03:58:52;2.60;;;2.40;;
1382;SDS011;685;47.196;11.880;2023-04-25T04:01:19;4.67;;;4.27;;
1382;SDS011;685;47.196;11.880;2023-04-25T04:03:46;7.73;;;6.83;;
1382;SDS011;685;47.196;11.880;2023-04-25T04:06:13;4.80;;;2.20;;
1382;SDS011;685;47.196;11.880;2023-04-25T04:08:40;2.40;;;1.67;;
1382;SDS011;685;47.196;11.880;2023-04-25T04:11:07;2.70;;;1.93;;
1382;SDS011;685;47.196;11.880;2023-04-25T04:13:35;4.07;;;3.27;;
1382;SDS011;685;47.196;11.880;2023-04-25T04:16:02;3.00;;;2.70;;
1382;SDS011;685;47.196;11.880;2023-04-25T04:18:30;2.40;;;1.67;;
1382;SDS011;685;47.196;11.880;2023-04-25T04:20:58;2.47;;;2.07;;
1382;SDS011;685;47.196;11.880;2023-04-25T04:23:25;2.30;;;2.07;;
1382;SDS011;685;47.196;11.880;2023-04-25T04:25:53;3.23;;;2.53;;
1382;SDS011;685;47.196;11.880;2023-04-25T04:28:20;2.40;;;2.07;;
1382;SDS011;685;47.196;11.880;2023-04-25T04:30:48;2.23;;;1.83;;
1382;SDS011;685;47.196;11.880;2023-04-25T04:33:16;3.07;;;2.30;;
1382;SDS011;685;47.196;11.880;2023-04-25T04:35:45;4.40;;;2.70;;
1382;SDS011;685;47.196;11.880;2023-04-25T04:38:13;3.23;;;2.80;;
1382;SDS011;685;47.196;11.880;2023-04-25T04:40:40;2.67;;;2.10;;
1382;SDS011;685;47.196;11.880;2023-04-25T04:43:08;8.00;;;6.50;;
1382;SDS011;685;47.196;11.880;2023-04-25T04:45:35;5.77;;;5.30;;
1382;SDS011;685;47.196;11.880;2023-04-25T04:48:05;7.17;;;5.00;;
1382;SDS011;685;47.196;11.880;2023-04-25T04:50:32;5.70;;;4.77;;
1382;SDS011;685;47.196;11.880;2023-04-25T04:52:59;3.40;;;3.10;;
1382;SDS011;685;47.196;11.880;2023-04-25T04:55:28;4.57;;;3.93;;
1382;SDS011;685;47.196;11.880;2023-04-25T04:57:54;3.17;;;2.57;;
1382;SDS011;685;47.196;11.880;2023-04-25T05:00:21;4.93;;;3.30;;
1382;SDS011;685;47.196;11.880;2023-04-25T05:02:48;3.57;;;3.27;;
1382;SDS011;685;47.196;11.880;2023-04-25T05:05:17;3.50;;;3.20;;
1382;SDS011;685;47.196;11.880;2023-04-25T05:07:44;5.50;;;3.97;;
1382;SDS011;685;47.196;11.880;2023-04-25T05:10:11;3.10;;;2.70;;
1382;SDS011;685;47.196;11.880;2023-04-25T05:12:37;3.40;;;3.10;;
1382;SDS011;685;47.196;11.880;2023-04-25T05:15:05;4.33;;;4.00;;
1382;SDS011;685;47.196;11.880;2023-04-25T05:17:33;3.83;;;3.53;;
1382;SDS011;685;47.196;11.880;2023-04-25T05:20:00;3.90;;;3.57;;
1382;SDS011;685;47.196;11.880;2023-04-25T05:22:29;3.73;;;3.43;;
1382;SDS011;685;47.196;11.880;2023-04-25T05:24:56;3.90;;;3.40;;
1382;SDS011;685;47.196;11.880;2023-04-25T05:27:24;6.00;;;4.30;;
1382;SDS011;685;47.196;11.880;2023-04-25T05:29:51;4.20;;;3.80;;
1382;SDS011;685;47.196;11.880;2023-04-25T05:32:18;4.30;;;3.90;;
1382;SDS011;685;47.196;11.880;2023-04-25T05:34:45;6.33;;;4.40;;
1382;SDS011;685;47.196;11.880;2023-04-25T05:37:12;4.00;;;3.13;;
1382;SDS011;685;47.196;11.880;2023-04-25T05:39:40;4.43;;;4.00;;
1382;SDS011;685;47.196;11.880;2023-04-25T05:42:07;3.90;;;3.60;;
1382;SDS011;685;47.196;11.880;2023-04-25T05:44:34;4.00;;;3.70;;
1382;SDS011;685;47.196;11.880;2023-04-25T05:47:00;4.07;;;3.67;;
1382;SDS011;685;47.196;11.880;2023-04-25T05:49:29;4.33;;;4.03;;
1382;SDS011;685;47.196;11.880;2023-04-25T05:51:56;5.23;;;4.50;;
1382;SDS011;685;47.196;11.880;2023-04-25T05:54:23;5.03;;;4.33;;
1382;SDS011;685;47.196;11.880;2023-04-25T05:56:51;4.93;;;4.00;;
1382;SDS011;685;47.196;11.880;2023-04-25T05:59:18;4.90;;;4.37;;
1382;SDS011;685;47.196;11.880;2023-04-25T06:01:45;10.23;;;6.13;;
1382;SDS011;685;47.196;11.880;2023-04-25T06:04:12;7.73;;;5.23;;
1382;SDS011;685;47.196;11.880;2023-04-25T06:06:39;7.50;;;5.93;;
1382;SDS011;685;47.196;11.880;2023-04-25T06:09:06;5.30;;;4.80;;
1382;SDS011;685;47.196;11.880;2023-04-25T06:11:33;5.07;;;4.57;;
1382;SDS011;685;47.196;11.880;2023-04-25T06:14:01;5.33;;;4.83;;
1382;SDS011;685;47.196;11.880;2023-04-25T06:16:28;6.90;;;5.40;;
1382;SDS011;685;47.196;11.880;2023-04-25T06:18:55;8.77;;;5.20;;
1382;SDS011;685;47.196;11.880;2023-04-25T06:21:22;7.00;;;5.43;;
1382;SDS011;685;47.196;11.880;2023-04-25T06:23:49;5.33;;;4.80;;
1382;SDS011;685;47.196;11.880;2023-04-25T06:26:16;9.60;;;7.70;;
1382;SDS011;685;47.196;11.880;2023-04-25T06:28:42;12.77;;;6.40;;
1382;SDS011;685;47.196;11.880;2023-04-25T06:31:11;4.43;;;4.03;;
1382;SDS011;685;47.196;11.880;2023-04-25T06:33:38;7.20;;;5.30;;
1382;SDS011;685;47.196;11.880;2023-04-25T06:36:05;6.50;;;5.10;;
1382;SDS011;685;47.196;11.880;2023-04-25T06:38:32;5.13;;;4.40;;
1382;SDS011;685;47.196;11.880;2023-04-25T06:40:59;3.67;;;3.37;;
1382;SDS011;685;47.196;11.880;2023-04-25T06:43:26;4.40;;;3.93;;
1382;SDS011;685;47.196;11.880;2023-04-25T06:45:53;7.60;;;4.87;;
1382;SDS011;685;47.196;11.880;2023-04-25T06:48:22;6.33;;;5.10;;
1382;SDS011;685;47.196;11.880;2023-04-25T06:50:49;7.30;;;4.70;;
1382;SDS011;685;47.196;11.880;2023-04-25T06:53:15;8.87;;;6.17;;
1382;SDS011;685;47.196;11.880;2023-04-25T06:55:43;5.40;;;4.90;;
1382;SDS011;685;47.196;11.880;2023-04-25T06:58:10;7.67;;;5.27;;
1382;SDS011;685;47.196;11.880;2023-04-25T07:00:37;6.03;;;4.60;;
1382;SDS011;685;47.196;11.880;2023-04-25T07:03:04;6.00;;;4.67;;
1382;SDS011;685;47.196;11.880;2023-04-25T07:05:32;6.83;;;5.40;;
1382;SDS011;685;47.196;11.880;2023-04-25T07:07:59;5.73;;;4.30;;
1382;SDS011;685;47.196;11.880;2023-04-25T07:10:26;4.00;;;3.60;;
1382;SDS011;685;47.196;11.880;2023-04-25T07:12:53;4.00;;;3.40;;
1382;SDS011;685;47.196;11.880;2023-04-25T07:15:20;3.30;;;2.80;;
1382;SDS011;685;47.196;11.880;2023-04-25T07:17:47;4.70;;;2.90;;
1382;SDS011;685;47.196;11.880;2023-04-25T07:20:14;3.27;;;2.97;;
1382;SDS011;685;47.196;11.880;2023-04-25T07:22:42;3.53;;;2.13;;
1382;SDS011;685;47.196;11.880;2023-04-25T07:25:09;3.70;;;2.90;;
1382;SDS011;685;47.196;11.880;2023-04-25T07:27:36;3.57;;;2.90;;
1382;SDS011;685;47.196;11.880;2023-04-25T07:30:04;4.67;;;2.90;;
1382;SDS011;685;47.196;11.880;2023-04-25T07:32:32;2.70;;;2.50;;
1382;SDS011;685;47.196;11.880;2023-04-25T07:34:59;3.30;;;2.50;;
1382;SDS011;685;47.196;11.880;2023-04-25T07:37:26;2.60;;;2.40;;
1382;SDS011;685;47.196;11.880;2023-04-25T07:39:55;4.00;;;2.60;;
1382;SDS011;685;47.196;11.880;2023-04-25T07:42:21;3.50;;;2.43;;
1382;SDS011;685;47.196;11.880;2023-04-25T07:44:48;3.97;;;2.00;;
1382;SDS011;685;47.196;11.880;2023-04-25T07:47:16;1.97;;;1.70;;
1382;SDS011;685;47.196;11.880;2023-04-25T07:49:45;2.20;;;2.00;;
1382;SDS011;685;47.196;11.880;2023-04-25T07:52:11;3.07;;;2.30;;
1382;SDS011;685;47.196;11.880;2023-04-25T07:54:38;2.50;;;2.30;;
1382;SDS011;685;47.196;11.880;2023-04-25T07:57:08;3.30;;;2.40;;
1382;SDS011;685;47.196;11.880;2023-04-25T07:59:35;4.18;;;2.10;;
1382;SDS011;685;47.196;11.880;2023-04-25T08:02:01;2.80;;;2.50;;
1382;SDS011;685;47.196;11.880;2023-04-25T08:04:28;3.23;;;2.90;;
1382;SDS011;685;47.196;11.880;2023-04-25T08:06:55;4.00;;;2.17;;
1382;SDS011;685;47.196;11.880;2023-04-25T08:09:22;2.57;;;2.37;;
1382;SDS011;685;47.196;11.880;2023-04-25T08:11:49;3.40;;;2.10;;
1382;SDS011;685;47.196;11.880;2023-04-25T08:14:18;3.57;;;2.30;;
1382;SDS011;685;47.196;11.880;2023-04-25T08:16:45;3.77;;;1.93;;
1382;SDS011;685;47.196;11.880;2023-04-25T08:19:12;2.60;;;2.27;;
1382;SDS011;685;47.196;11.880;2023-04-25T08:21:39;2.50;;;2.17;;
1382;SDS011;685;47.196;11.880;2023-04-25T08:24:06;2.30;;;2.10;;
1382;SDS011;685;47.196;11.880;2023-04-25T08:26:33;2.50;;;2.30;;
1382;SDS011;685;47.196;11.880;2023-04-25T08:29:02;3.07;;;2.27;;
1382;SDS011;685;47.196;11.880;2023-04-25T08:31:30;3.33;;;1.77;;
1382;SDS011;685;47.196;11.880;2023-04-25T08:33:57;2.10;;;1.70;;
1382;SDS011;685;47.196;11.880;2023-04-25T08:36:24;2.30;;;2.10;;
1382;SDS011;685;47.196;11.880;2023-04-25T08:38:53;1.97;;;1.67;;
1382;SDS011;685;47.196;11.880;2023-04-25T08:41:20;2.40;;;1.60;;
1382;SDS011;685;47.196;11.880;2023-04-25T08:43:48;1.80;;;1.67;;
1382;SDS011;685;47.196;11.880;2023-04-25T08:46:16;2.63;;;1.70;;
1382;SDS011;685;47.196;11.880;2023-04-25T08:48:45;2.63;;;2.10;;
1382;SDS011;685;47.196;11.880;2023-04-25T08:51:14;2.30;;;2.10;;
1382;SDS011;685;47.196;11.880;2023-04-25T08:53:47;2.13;;;1.80;;
1382;SDS011;685;47.196;11.880;2023-04-25T08:56:16;1.87;;;1.67;;
1382;SDS011;685;47.196;11.880;2023-04-25T08:58:46;1.73;;;1.43;;
1382;SDS011;685;47.196;11.880;2023-04-25T09:01:14;2.43;;;1.87;;
1382;SDS011;685;47.196;11.880;2023-04-25T09:03:41;2.57;;;1.63;;
1382;SDS011;685;47.196;11.880;2023-04-25T09:06:11;2.87;;;1.70;;
1382;SDS011;685;47.196;11.880;2023-04-25T09:08:38;1.80;;;1.40;;
1382;SDS011;685;47.196;11.880;2023-04-25T09:11:06;1.80;;;1.50;;
1382;SDS011;685;47.196;11.880;2023-04-25T09:13:33;1.93;;;1.47;;
1382;SDS011;685;47.196;11.880;2023-04-25T09:16:00;3.63;;;1.83;;
1382;SDS011;685;47.196;11.880;2023-04-25T09:18:28;1.83;;;1.40;;
1382;SDS011;685;47.196;11.880;2023-04-25T09:20:56;2.27;;;1.40;;
1382;SDS011;685;47.196;11.880;2023-04-25T09:23:38;1.60;;;1.20;;
1382;SDS011;685;47.196;11.880;2023-04-25T09:26:06;4.03;;;1.77;;
1382;SDS011;685;47.196;11.880;2023-04-25T09:28:34;2.37;;;1.57;;
1382;SDS011;685;47.196;11.880;2023-04-25T09:31:02;1.97;;;1.27;;
1382;SDS011;685;47.196;11.880;2023-04-25T09:33:30;2.10;;;1.30;;
1382;SDS011;685;47.196;11.880;2023-04-25T09:36:02;2.33;;;2.13;;
1382;SDS011;685;47.196;11.880;2023-04-25T09:38:30;2.47;;;1.63;;
1382;SDS011;685;47.196;11.880;2023-04-25T09:40:59;2.23;;;1.40;;
1382;SDS011;685;47.196;11.880;2023-04-25T09:43:26;1.80;;;1.43;;
1382;SDS011;685;47.196;11.880;2023-04-25T09:45:54;1.40;;;1.17;;
1382;SDS011;685;47.196;11.880;2023-04-25T09:48:24;2.20;;;1.40;;
1382;SDS011;685;47.196;11.880;2023-04-25T09:51:05;2.17;;;1.60;;
1382;SDS011;685;47.196;11.880;2023-04-25T09:53:33;2.70;;;1.50;;
1382;SDS011;685;47.196;11.880;2023-04-25T09:56:04;2.60;;;1.50;;
1382;SDS011;685;47.196;11.880;2023-04-25T09:58:32;2.00;;;1.53;;
1382;SDS011;685;47.196;11.880;2023-04-25T10:01:01;1.53;;;1.23;;
1382;SDS011;685;47.196;11.880;2023-04-25T10:03:29;2.73;;;1.50;;
1382;SDS011;685;47.196;11.880;2023-04-25T10:05:58;1.50;;;1.33;;
1382;SDS011;685;47.196;11.880;2023-04-25T10:08:27;2.60;;;1.90;;
1382;SDS011;685;47.196;11.880;2023-04-25T10:10:58;3.07;;;1.47;;
1382;SDS011;685;47.196;11.880;2023-04-25T10:13:28;3.27;;;1.60;;
1382;SDS011;685;47.196;11.880;2023-04-25T10:15:56;2.67;;;1.70;;
1382;SDS011;685;47.196;11.880;2023-04-25T10:18:24;1.80;;;1.13;;
1382;SDS011;685;47.196;11.880;2023-04-25T10:20:52;2.20;;;1.40;;
1382;SDS011;685;47.196;11.880;2023-04-25T10:23:20;1.90;;;1.60;;
1382;SDS011;685;47.196;11.880;2023-04-25T10:25:47;1.90;;;1.47;;
1382;SDS011;685;47.196;11.880;2023-04-25T10:28:15;4.80;;;1.87;;
1382;SDS011;685;47.196;11.880;2023-04-25T10:33:29;2.07;;;1.17;;
1382;SDS011;685;47.196;11.880;2023-04-25T10:36:04;2.27;;;1.63;;
1382;SDS011;685;47.196;11.880;2023-04-25T10:38:35;1.53;;;1.27;;
1382;SDS011;685;47.196;11.880;2023-04-25T10:41:03;1.97;;;1.20;;
1382;SDS011;685;47.196;11.880;2023-04-25T10:43:34;1.37;;;1.03;;
1382;SDS011;685;47.196;11.880;2023-04-25T10:46:13;2.33;;;1.23;;
1382;SDS011;685;47.196;11.880;2023-04-25T10:48:45;1.97;;;1.30;;
1382;SDS011;685;47.196;11.880;2023-04-25T10:51:17;1.87;;;1.30;;
1382;SDS011;685;47.196;11.880;2023-04-25T10:53:46;2.00;;;1.30;;
1382;SDS011;685;47.196;11.880;2023-04-25T10:56:22;1.50;;;1.30;;
1382;SDS011;685;47.196;11.880;2023-04-25T10:58:51;1.53;;;1.40;;
1382;SDS011;685;47.196;11.880;2023-04-25T11:01:35;2.20;;;1.00;;
1382;SDS011;685;47.196;11.880;2023-04-25T11:04:02;5.00;;;1.40;;
1382;SDS011;685;47.196;11.880;2023-04-25T11:06:31;2.00;;;1.30;;
1382;SDS011;685;47.196;11.880;2023-04-25T11:09:10;1.90;;;1.43;;
1382;SDS011;685;47.196;11.880;2023-04-25T11:11:38;1.73;;;1.13;;
1382;SDS011;685;47.196;11.880;2023-04-25T11:14:05;1.30;;;0.90;;
1382;SDS011;685;47.196;11.880;2023-04-25T11:16:34;2.53;;;1.20;;
1382;SDS011;685;47.196;11.880;2023-04-25T11:19:01;1.83;;;1.30;;
1382;SDS011;685;47.196;11.880;2023-04-25T11:21:28;1.50;;;1.10;;
1382;SDS011;685;47.196;11.880;2023-04-25T11:23:56;2.60;;;1.33;;
1382;SDS011;685;47.196;11.880;2023-04-25T11:26:24;1.40;;;1.10;;
1382;SDS011;685;47.196;11.880;2023-04-25T11:28:51;1.80;;;1.10;;
1382;SDS011;685;47.196;11.880;2023-04-25T11:31:19;2.60;;;1.53;;
1382;SDS011;685;47.196;11.880;2023-04-25T11:33:48;2.33;;;1.57;;
1382;SDS011;685;47.196;11.880;2023-04-25T11:36:16;1.67;;;1.40;;
1382;SDS011;685;47.196;11.880;2023-04-25T11:38:43;1.67;;;1.30;;
1382;SDS011;685;47.196;11.880;2023-04-25T11:41:10;1.50;;;1.10;;
1382;SDS011;685;47.196;11.880;2023-04-25T11:43:37;3.63;;;0.90;;
1382;SDS011;685;47.196;11.880;2023-04-25T11:46:06;1.60;;;1.03;;
1382;SDS011;685;47.196;11.880;2023-04-25T11:48:36;1.40;;;0.93;;
1382;SDS011;685;47.196;11.880;2023-04-25T11:51:05;1.60;;;1.20;;
1382;SDS011;685;47.196;11.880;2023-04-25T11:53:32;2.03;;;1.00;;
1382;SDS011;685;47.196;11.880;2023-04-25T11:55:59;2.33;;;1.10;;
1382;SDS011;685;47.196;11.880;2023-04-25T11:58:27;2.07;;;1.50;;
1382;SDS011;685;47.196;11.880;2023-04-25T12:00:54;1.47;;;1.17;;
1382;SDS011;685;47.196;11.880;2023-04-25T12:03:23;3.40;;;1.60;;
1382;SDS011;685;47.196;11.880;2023-04-25T12:05:52;1.90;;;1.20;;
1382;SDS011;685;47.196;11.880;2023-04-25T12:08:20;4.50;;;1.50;;
1382;SDS011;685;47.196;11.880;2023-04-25T12:10:47;7.10;;;3.10;;
1382;SDS011;685;47.196;11.880;2023-04-25T12:13:18;17.27;;;11.90;;
1382;SDS011;685;47.196;11.880;2023-04-25T12:15:46;5.53;;;4.10;;
1382;SDS011;685;47.196;11.880;2023-04-25T12:18:14;2.60;;;2.10;;
1382;SDS011;685;47.196;11.880;2023-04-25T12:20:41;2.80;;;1.67;;
1382;SDS011;685;47.196;11.880;2023-04-25T12:23:08;1.73;;;1.17;;
1382;SDS011;685;47.196;11.880;2023-04-25T12:25:38;1.40;;;0.90;;
1382;SDS011;685;47.196;11.880;2023-04-25T12:28:10;1.40;;;1.10;;
1382;SDS011;685;47.196;11.880;2023-04-25T12:30:57;1.70;;;1.27;;
1382;SDS011;685;47.196;11.880;2023-04-25T12:33:26;2.20;;;1.00;;
1382;SDS011;685;47.196;11.880;2023-04-25T12:35:54;1.67;;;1.20;;
1382;SDS011;685;47.196;11.880;2023-04-25T12:38:24;1.73;;;1.20;;
1382;SDS011;685;47.196;11.880;2023-04-25T12:40:55;1.40;;;1.10;;
1382;SDS011;685;47.196;11.880;2023-04-25T12:43:23;1.60;;;1.10;;
1382;SDS011;685;47.196;11.880;2023-04-25T12:45:50;1.80;;;1.30;;
1382;SDS011;685;47.196;11.880;2023-04-25T12:48:18;2.43;;;2.13;;
1382;SDS011;685;47.196;11.880;2023-04-25T12:50:46;2.17;;;1.10;;
1382;SDS011;685;47.196;11.880;2023-04-25T12:53:14;1.30;;;0.80;;
1382;SDS011;685;47.196;11.880;2023-04-25T12:55:41;1.40;;;1.20;;
1382;SDS011;685;47.196;11.880;2023-04-25T12:58:09;2.63;;;1.20;;
1382;SDS011;685;47.196;11.880;2023-04-25T13:00:36;1.40;;;1.10;;
1382;SDS011;685;47.196;11.880;2023-04-25T13:03:03;1.47;;;1.27;;
1382;SDS011;685;47.196;11.880;2023-04-25T13:05:30;2.80;;;1.63;;
1382;SDS011;685;47.196;11.880;2023-04-25T13:07:57;3.03;;;1.00;;
1382;SDS011;685;47.196;11.880;2023-04-25T13:10:24;1.63;;;0.90;;
1382;SDS011;685;47.196;11.880;2023-04-25T13:12:51;2.23;;;1.30;;
1382;SDS011;685;47.196;11.880;2023-04-25T13:15:19;1.47;;;1.30;;
1382;SDS011;685;47.196;11.880;2023-04-25T13:17:47;1.67;;;1.43;;
1382;SDS011;685;47.196;11.880;2023-04-25T13:20:13;4.07;;;3.30;;
1382;SDS011;685;47.196;11.880;2023-04-25T13:22:41;1.97;;;1.73;;
1382;SDS011;685;47.196;11.880;2023-04-25T13:25:10;2.37;;;1.80;;
1382;SDS011;685;47.196;11.880;2023-04-25T13:27:37;1.87;;;1.37;;
1382;SDS011;685;47.196;11.880;2023-04-25T13:30:06;2.10;;;1.27;;
1382;SDS011;685;47.196;11.880;2023-04-25T13:32:35;1.70;;;1.47;;
1382;SDS011;685;47.196;11.880;2023-04-25T13:35:03;8.63;;;1.37;;
1382;SDS011;685;47.196;11.880;2023-04-25T13:37:30;1.23;;;1.00;;
1382;SDS011;685;47.196;11.880;2023-04-25T13:39:58;1.70;;;1.10;;
1382;SDS011;685;47.196;11.880;2023-04-25T13:42:27;2.00;;;1.03;;
1382;SDS011;685;47.196;11.880;2023-04-25T13:44:54;1.67;;;1.10;;
1382;SDS011;685;47.196;11.880;2023-04-25T13:47:21;1.13;;;0.83;;
1382;SDS011;685;47.196;11.880;2023-04-25T13:49:50;1.73;;;1.10;;
1382;SDS011;685;47.196;11.880;2023-04-25T13:52:17;2.90;;;0.90;;
1382;SDS011;685;47.196;11.880;2023-04-25T13:54:44;1.40;;;0.93;;
1382;SDS011;685;47.196;11.880;2023-04-25T13:57:11;1.50;;;1.20;;
1382;SDS011;685;47.196;11.880;2023-04-25T13:59:38;1.17;;;0.80;;
1382;SDS011;685;47.196;11.880;2023-04-25T14:02:06;1.40;;;1.07;;
1382;SDS011;685;47.196;11.880;2023-04-25T14:04:33;1.93;;;1.00;;
1382;SDS011;685;47.196;11.880;2023-04-25T14:07:01;1.30;;;0.70;;
1382;SDS011;685;47.196;11.880;2023-04-25T14:09:29;1.27;;;0.90;;
1382;SDS011;685;47.196;11.880;2023-04-25T14:11:56;1.60;;;1.30;;
1382;SDS011;685;47.196;11.880;2023-04-25T14:14:23;1.30;;;1.20;;
1382;SDS011;685;47.196;11.880;2023-04-25T14:16:50;1.87;;;1.23;;
1382;SDS011;685;47.196;11.880;2023-04-25T14:19:19;1.43;;;1.10;;
1382;SDS011;685;47.196;11.880;2023-04-25T14:21:46;1.60;;;1.20;;
1382;SDS011;685;47.196;11.880;2023-04-25T14:24:14;3.20;;;1.03;;
1382;SDS011;685;47.196;11.880;2023-04-25T14:26:41;1.70;;;1.60;;
1382;SDS011;685;47.196;11.880;2023-04-25T14:29:09;1.60;;;1.20;;
1382;SDS011;685;47.196;11.880;2023-04-25T14:31:37;4.10;;;1.00;;
1382;SDS011;685;47.196;11.880;2023-04-25T14:34:04;1.00;;;0.73;;
1382;SDS011;685;47.196;11.880;2023-04-25T14:36:31;3.67;;;1.20;;
1382;SDS011;685;47.196;11.880;2023-04-25T14:38:59;2.70;;;1.40;;
1382;SDS011;685;47.196;11.880;2023-04-25T14:41:27;2.17;;;1.03;;
1382;SDS011;685;47.196;11.880;2023-04-25T14:43:54;1.97;;;1.10;;
1382;SDS011;685;47.196;11.880;2023-04-25T14:46:22;1.97;;;1.20;;
1382;SDS011;685;47.196;11.880;2023-04-25T14:48:49;1.90;;;1.20;;
1382;SDS011;685;47.196;11.880;2023-04-25T14:51:16;2.20;;;1.50;;
1382;SDS011;685;47.196;11.880;2023-04-25T14:53:43;1.53;;;0.83;;
1382;SDS011;685;47.196;11.880;2023-04-25T14:56:09;1.30;;;1.10;;
1382;SDS011;685;47.196;11.880;2023-04-25T14:58:38;1.83;;;1.57;;
1382;SDS011;685;47.196;11.880;2023-04-25T15:01:06;1.67;;;1.20;;
1382;SDS011;685;47.196;11.880;2023-04-25T15:03:33;2.60;;;1.10;;
1382;SDS011;685;47.196;11.880;2023-04-25T15:06:00;2.10;;;1.07;;
1382;SDS011;685;47.196;11.880;2023-04-25T15:08:26;1.70;;;1.60;;
1382;SDS011;685;47.196;11.880;2023-04-25T15:10:53;2.03;;;1.20;;
1382;SDS011;685;47.196;11.880;2023-04-25T15:13:20;2.60;;;1.20;;
1382;SDS011;685;47.196;11.880;2023-04-25T15:15:49;4.40;;;3.30;;
1382;SDS011;685;47.196;11.880;2023-04-25T15:18:19;2.90;;;1.60;;
1382;SDS011;685;47.196;11.880;2023-04-25T15:20:48;1.80;;;1.30;;